Gold Bar, WA (98251)

6:54 PM PDT on September 17, 2014 (GMT -0700)
Skykomish Valley at MIR | Change Station
CLOSE
Current Station
Personal Weather Station
Location: Index, WA
Elevation: 686 ft
Nearby Weather Stations
4.0 Earthquake: Seabeck, Washington (15 hours ago)  

Elev 686 ft 47.80 °N, 121.55 °W | Updated 14 minutes ago

Mostly Cloudy
Mostly Cloudy
65.7 °F
Feels Like 65.7 °F
N
0.0
Wind Variable Wind from East
Gusts 3.0 mph

Today
High -- | Low -- °F
--% Chance of Precip.
Yesterday
High -- | Low -- °F
Precip. -- in
6:46 AM 7:14 PM
Waning Crescent, 31% visible
Pressure 29.73 in
Visibility 10.0 miles
Clouds Clear
Dew Point 61 °F
Humidity 85%
Rainfall 0.00 in
Snow Depth 0 in , 0 in , 0 in
UV 1 out of 12
Pollen 1.70 out of 12
PM2.5 Moderate
Flu Activity Not available.
METAR KPAE 180053Z 33003KT 10SM CLR 16/13 A2973 RMK AO2 SLP065 T01610128

More Conditions Fewer Conditions

Pressure 29.73 in
Visibility 10.0 miles
Clouds Clear
Dew Point 61 °F
Humidity 85%
Rainfall 0.00 in
Snow Depth 0 in , 0 in , 0 in
UV 1 out of 12
Pollen 1.70 out of 12
PM2.5 Moderate
Flu Activity Not available.
METAR KPAE 180053Z 33003KT 10SM CLR 16/13 A2973 RMK AO2 SLP065 T01610128

More Conditions Fewer Conditions

10-Day Weather Forecast

Almanac

Astronomy

Sep. 17, 2014 Rise Set
Actual Time 6:46 AM PDT 7:14 PM PDT
Civil Twilight 6:15 AM PDT 7:45 PM PDT
Nautical Twilight 5:38 AM PDT 8:22 PM PDT
Astronomical Twilight 5:00 AM PDT 9:00 PM PDT
Moon 12:32 AM PDT (9/17) 3:45 PM PDT (9/17)
Length of Visible Light 13h 29m
Length of Day
12h 27m
Tomorrow will be 3m 26s shorter.
Waning Crescent, 31% of the Moon is Illuminated
Today
Waning Crescent
Sep 24
New
Oct 1
First Quarter
Oct 8
Full
Oct 15
Last Quarter

Today's Extremes

State Highs State Lows

Community

WunderPhotos

Upload Photos

1,754,261 photos uploaded!

Nearby

Air Quality

  Air Quality AQ Index Pollutant
Yesterday Moderate
PM2.5
Yesterday Good
OZONE
Current Moderate
PM2.5
Wednesday Good
PM2.5
Wednesday Good
OZONE
Thursday Good
OZONE
Thursday Good
PM2.5
Friday Good
OZONE
Friday Good
PM2.5
Saturday Good
PM2.5
Saturday Good
OZONE
Sunday Good
PM2.5
Sunday Good
OZONE
Monday Good
OZONE
Monday Good
PM2.5

Snow Depth

Station Depth Elevation
Park Creek Ridge 0 in 4600 ft
Pope Ridge 0 in 3540 ft
Quartz Peak 0 in 4700 ft
Touchet 0 in 5530 ft
Burnt Mountain 0 in 4200 ft

Earthquake Activity

City Distance Mag. Time & Date
Seabeck, Washington 66 miles 4.0 3:06 AM PDT
2014-09-17
Morton, Washington 109 miles 3.0 5:43 AM PDT
2014-09-16
Minimum magnitude displayed is 2.5.

Coastal Water Temperatures

Place Temperature
No Stations Reporting

Nearby Weather Stations